<?xml version="1.0" encoding="UTF-8" standalone="no" ?>
<gpx xmlns="http://www.topografix.com/GPX/1/1" xmlns:xsi="http://www.w3.org/2001/XMLSchema-instance" xsi:schemaLocation="http://www.topografix.com/GPX/1/1 http://www.topografix.com/GPX/1/1/gpx.xsd" version="1.1" creator="VisuGPX - https://www.visugpx.com">
  <metadata>
    <name>Randonnée des Rois 2026 By Indestructeam - 6KM</name>
    <desc><![CDATA[#Indestructeam #RandonneeDesRois #Oingt #Beaujolais #PierresDorees]]></desc>
  </metadata>
  <trk>
    <name><![CDATA[Randonnée des rois 5 km 2026-22519561]]></name>
    <trkseg>
      <trkpt lat="45.94475" lon="4.58298">
        <ele>517</ele>
        <time>2025-10-29T20:36:36Z</time>
      </trkpt>
      <trkpt lat="45.94489" lon="4.58343">
        <ele>519</ele>
        <time>2025-10-29T20:37:22Z</time>
      </trkpt>
      <trkpt lat="45.94545" lon="4.58316">
        <ele>521</ele>
        <time>2025-10-29T20:38:41Z</time>
      </trkpt>
      <trkpt lat="45.94587" lon="4.58298">
        <ele>521</ele>
        <time>2025-10-29T20:39:39Z</time>
      </trkpt>
      <trkpt lat="45.94635" lon="4.5828">
        <ele>524</ele>
        <time>2025-10-29T20:40:45Z</time>
      </trkpt>
      <trkpt lat="45.94662" lon="4.58277">
        <ele>525</ele>
        <time>2025-10-29T20:41:21Z</time>
      </trkpt>
      <trkpt lat="45.94664" lon="4.58262">
        <ele>527</ele>
        <time>2025-10-29T20:41:36Z</time>
      </trkpt>
      <trkpt lat="45.94669" lon="4.58248">
        <ele>528</ele>
        <time>2025-10-29T20:41:50Z</time>
      </trkpt>
      <trkpt lat="45.94673" lon="4.58228">
        <ele>525</ele>
        <time>2025-10-29T20:42:09Z</time>
      </trkpt>
      <trkpt lat="45.94677" lon="4.5822">
        <ele>525</ele>
        <time>2025-10-29T20:42:19Z</time>
      </trkpt>
      <trkpt lat="45.94683" lon="4.58211">
        <ele>524</ele>
        <time>2025-10-29T20:42:30Z</time>
      </trkpt>
      <trkpt lat="45.94691" lon="4.58202">
        <ele>524</ele>
        <time>2025-10-29T20:42:44Z</time>
      </trkpt>
      <trkpt lat="45.94708" lon="4.58193">
        <ele>525</ele>
        <time>2025-10-29T20:43:08Z</time>
      </trkpt>
      <trkpt lat="45.94721" lon="4.58188">
        <ele>526</ele>
        <time>2025-10-29T20:43:26Z</time>
      </trkpt>
      <trkpt lat="45.94732" lon="4.58184">
        <ele>527</ele>
        <time>2025-10-29T20:43:41Z</time>
      </trkpt>
      <trkpt lat="45.94742" lon="4.58184">
        <ele>528</ele>
        <time>2025-10-29T20:43:54Z</time>
      </trkpt>
      <trkpt lat="45.94751" lon="4.58182">
        <ele>529</ele>
        <time>2025-10-29T20:44:07Z</time>
      </trkpt>
      <trkpt lat="45.94753" lon="4.58183">
        <ele>529</ele>
        <time>2025-10-29T20:44:09Z</time>
      </trkpt>
      <trkpt lat="45.94755" lon="4.58187">
        <ele>529</ele>
        <time>2025-10-29T20:44:14Z</time>
      </trkpt>
      <trkpt lat="45.94764" lon="4.58186">
        <ele>529</ele>
        <time>2025-10-29T20:44:26Z</time>
      </trkpt>
      <trkpt lat="45.94767" lon="4.58186">
        <ele>529</ele>
        <time>2025-10-29T20:44:30Z</time>
      </trkpt>
      <trkpt lat="45.94768" lon="4.58188">
        <ele>530</ele>
        <time>2025-10-29T20:44:32Z</time>
      </trkpt>
      <trkpt lat="45.94768" lon="4.58191">
        <ele>530</ele>
        <time>2025-10-29T20:44:35Z</time>
      </trkpt>
      <trkpt lat="45.94789" lon="4.58188">
        <ele>530</ele>
        <time>2025-10-29T20:45:03Z</time>
      </trkpt>
      <trkpt lat="45.94791" lon="4.58189">
        <ele>530</ele>
        <time>2025-10-29T20:45:06Z</time>
      </trkpt>
      <trkpt lat="45.94793" lon="4.58201">
        <ele>531</ele>
        <time>2025-10-29T20:45:17Z</time>
      </trkpt>
      <trkpt lat="45.94794" lon="4.58196">
        <ele>531</ele>
        <time>2025-10-29T20:45:22Z</time>
      </trkpt>
      <trkpt lat="45.94796" lon="4.58191">
        <ele>530</ele>
        <time>2025-10-29T20:45:28Z</time>
      </trkpt>
      <trkpt lat="45.94794" lon="4.58196">
        <ele>531</ele>
        <time>2025-10-29T20:45:33Z</time>
      </trkpt>
      <trkpt lat="45.94793" lon="4.58201">
        <ele>531</ele>
        <time>2025-10-29T20:45:38Z</time>
      </trkpt>
      <trkpt lat="45.94791" lon="4.58206">
        <ele>532</ele>
        <time>2025-10-29T20:45:43Z</time>
      </trkpt>
      <trkpt lat="45.94797" lon="4.58225">
        <ele>534</ele>
        <time>2025-10-29T20:46:03Z</time>
      </trkpt>
      <trkpt lat="45.94799" lon="4.5824">
        <ele>536</ele>
        <time>2025-10-29T20:46:17Z</time>
      </trkpt>
      <trkpt lat="45.94798" lon="4.58252">
        <ele>537</ele>
        <time>2025-10-29T20:46:28Z</time>
      </trkpt>
      <trkpt lat="45.9481" lon="4.58256">
        <ele>536</ele>
        <time>2025-10-29T20:46:44Z</time>
      </trkpt>
      <trkpt lat="45.9482" lon="4.58262">
        <ele>536</ele>
        <time>2025-10-29T20:46:59Z</time>
      </trkpt>
      <trkpt lat="45.9483" lon="4.5827">
        <ele>535</ele>
        <time>2025-10-29T20:47:14Z</time>
      </trkpt>
      <trkpt lat="45.94832" lon="4.58276">
        <ele>535</ele>
        <time>2025-10-29T20:47:20Z</time>
      </trkpt>
      <trkpt lat="45.9485" lon="4.58283">
        <ele>532</ele>
        <time>2025-10-29T20:47:45Z</time>
      </trkpt>
      <trkpt lat="45.94855" lon="4.58285">
        <ele>531</ele>
        <time>2025-10-29T20:47:52Z</time>
      </trkpt>
      <trkpt lat="45.94858" lon="4.58296">
        <ele>531</ele>
        <time>2025-10-29T20:48:03Z</time>
      </trkpt>
      <trkpt lat="45.94864" lon="4.58304">
        <ele>530</ele>
        <time>2025-10-29T20:48:14Z</time>
      </trkpt>
      <trkpt lat="45.94869" lon="4.58307">
        <ele>529</ele>
        <time>2025-10-29T20:48:21Z</time>
      </trkpt>
      <trkpt lat="45.94878" lon="4.58303">
        <ele>528</ele>
        <time>2025-10-29T20:48:34Z</time>
      </trkpt>
      <trkpt lat="45.9488" lon="4.58303">
        <ele>528</ele>
        <time>2025-10-29T20:48:36Z</time>
      </trkpt>
      <trkpt lat="45.94892" lon="4.58299">
        <ele>527</ele>
        <time>2025-10-29T20:48:53Z</time>
      </trkpt>
      <trkpt lat="45.94895" lon="4.58319">
        <ele>527</ele>
        <time>2025-10-29T20:49:12Z</time>
      </trkpt>
      <trkpt lat="45.949" lon="4.58335">
        <ele>528</ele>
        <time>2025-10-29T20:49:28Z</time>
      </trkpt>
      <trkpt lat="45.94898" lon="4.58349">
        <ele>527</ele>
        <time>2025-10-29T20:49:41Z</time>
      </trkpt>
      <trkpt lat="45.94899" lon="4.58368">
        <ele>527</ele>
        <time>2025-10-29T20:49:59Z</time>
      </trkpt>
      <trkpt lat="45.949" lon="4.58388">
        <ele>527</ele>
        <time>2025-10-29T20:50:18Z</time>
      </trkpt>
      <trkpt lat="45.94906" lon="4.58391">
        <ele>527</ele>
        <time>2025-10-29T20:50:26Z</time>
      </trkpt>
      <trkpt lat="45.94912" lon="4.58395">
        <ele>527</ele>
        <time>2025-10-29T20:50:35Z</time>
      </trkpt>
      <trkpt lat="45.9492" lon="4.58396">
        <ele>527</ele>
        <time>2025-10-29T20:50:46Z</time>
      </trkpt>
      <trkpt lat="45.94943" lon="4.58397">
        <ele>528</ele>
        <time>2025-10-29T20:51:16Z</time>
      </trkpt>
      <trkpt lat="45.94973" lon="4.58402">
        <ele>530</ele>
        <time>2025-10-29T20:51:57Z</time>
      </trkpt>
      <trkpt lat="45.94991" lon="4.58414">
        <ele>531</ele>
        <time>2025-10-29T20:52:23Z</time>
      </trkpt>
      <trkpt lat="45.95014" lon="4.58433">
        <ele>533</ele>
        <time>2025-10-29T20:52:59Z</time>
      </trkpt>
      <trkpt lat="45.95025" lon="4.58438">
        <ele>534</ele>
        <time>2025-10-29T20:53:14Z</time>
      </trkpt>
      <trkpt lat="45.95051" lon="4.58445">
        <ele>536</ele>
        <time>2025-10-29T20:53:49Z</time>
      </trkpt>
      <trkpt lat="45.95071" lon="4.58453">
        <ele>537</ele>
        <time>2025-10-29T20:54:17Z</time>
      </trkpt>
      <trkpt lat="45.95092" lon="4.58463">
        <ele>539</ele>
        <time>2025-10-29T20:54:46Z</time>
      </trkpt>
      <trkpt lat="45.95105" lon="4.58473">
        <ele>540</ele>
        <time>2025-10-29T20:55:06Z</time>
      </trkpt>
      <trkpt lat="45.95112" lon="4.58481">
        <ele>541</ele>
        <time>2025-10-29T20:55:18Z</time>
      </trkpt>
      <trkpt lat="45.9512" lon="4.58495">
        <ele>542</ele>
        <time>2025-10-29T20:55:35Z</time>
      </trkpt>
      <trkpt lat="45.95149" lon="4.58526">
        <ele>544</ele>
        <time>2025-10-29T20:56:23Z</time>
      </trkpt>
      <trkpt lat="45.95177" lon="4.58556">
        <ele>544</ele>
        <time>2025-10-29T20:57:10Z</time>
      </trkpt>
      <trkpt lat="45.95191" lon="4.58576">
        <ele>545</ele>
        <time>2025-10-29T20:57:36Z</time>
      </trkpt>
      <trkpt lat="45.952" lon="4.58595">
        <ele>545</ele>
        <time>2025-10-29T20:57:57Z</time>
      </trkpt>
      <trkpt lat="45.95229" lon="4.5866">
        <ele>545</ele>
        <time>2025-10-29T20:59:09Z</time>
      </trkpt>
      <trkpt lat="45.95237" lon="4.58675">
        <ele>546</ele>
        <time>2025-10-29T20:59:27Z</time>
      </trkpt>
      <trkpt lat="45.95308" lon="4.58805">
        <ele>546</ele>
        <time>2025-10-29T21:02:00Z</time>
      </trkpt>
      <trkpt lat="45.95327" lon="4.58844">
        <ele>547</ele>
        <time>2025-10-29T21:02:44Z</time>
      </trkpt>
      <trkpt lat="45.95356" lon="4.5891">
        <ele>552</ele>
        <time>2025-10-29T21:03:57Z</time>
      </trkpt>
      <trkpt lat="45.95365" lon="4.58926">
        <ele>554</ele>
        <time>2025-10-29T21:04:16Z</time>
      </trkpt>
      <trkpt lat="45.95375" lon="4.58938">
        <ele>556</ele>
        <time>2025-10-29T21:04:33Z</time>
      </trkpt>
      <trkpt lat="45.95394" lon="4.58953">
        <ele>559</ele>
        <time>2025-10-29T21:05:02Z</time>
      </trkpt>
      <trkpt lat="45.9544" lon="4.58978">
        <ele>561</ele>
        <time>2025-10-29T21:06:08Z</time>
      </trkpt>
      <trkpt lat="45.95454" lon="4.58991">
        <ele>563</ele>
        <time>2025-10-29T21:06:30Z</time>
      </trkpt>
      <trkpt lat="45.95477" lon="4.59016">
        <ele>568</ele>
        <time>2025-10-29T21:07:08Z</time>
      </trkpt>
      <trkpt lat="45.95504" lon="4.59035">
        <ele>572</ele>
        <time>2025-10-29T21:07:48Z</time>
      </trkpt>
      <trkpt lat="45.95522" lon="4.59043">
        <ele>574</ele>
        <time>2025-10-29T21:08:14Z</time>
      </trkpt>
      <trkpt lat="45.95538" lon="4.59049">
        <ele>575</ele>
        <time>2025-10-29T21:08:36Z</time>
      </trkpt>
      <trkpt lat="45.95598" lon="4.59053">
        <ele>577</ele>
        <time>2025-10-29T21:09:56Z</time>
      </trkpt>
      <trkpt lat="45.95633" lon="4.59051">
        <ele>578</ele>
        <time>2025-10-29T21:10:42Z</time>
      </trkpt>
      <trkpt lat="45.95654" lon="4.59046">
        <ele>578</ele>
        <time>2025-10-29T21:11:11Z</time>
      </trkpt>
      <trkpt lat="45.95678" lon="4.59039">
        <ele>579</ele>
        <time>2025-10-29T21:11:44Z</time>
      </trkpt>
      <trkpt lat="45.9573" lon="4.59017">
        <ele>579</ele>
        <time>2025-10-29T21:12:56Z</time>
      </trkpt>
      <trkpt lat="45.95789" lon="4.59008">
        <ele>584</ele>
        <time>2025-10-29T21:14:15Z</time>
      </trkpt>
      <trkpt lat="45.9581" lon="4.59001">
        <ele>584</ele>
        <time>2025-10-29T21:14:44Z</time>
      </trkpt>
      <trkpt lat="45.95845" lon="4.58985">
        <ele>585</ele>
        <time>2025-10-29T21:15:33Z</time>
      </trkpt>
      <trkpt lat="45.95877" lon="4.58966">
        <ele>588</ele>
        <time>2025-10-29T21:16:19Z</time>
      </trkpt>
      <trkpt lat="45.95898" lon="4.58949">
        <ele>589</ele>
        <time>2025-10-29T21:16:51Z</time>
      </trkpt>
      <trkpt lat="45.95936" lon="4.58929">
        <ele>592</ele>
        <time>2025-10-29T21:17:45Z</time>
      </trkpt>
      <trkpt lat="45.95982" lon="4.58906">
        <ele>595</ele>
        <time>2025-10-29T21:18:50Z</time>
      </trkpt>
      <trkpt lat="45.96002" lon="4.58903">
        <ele>598</ele>
        <time>2025-10-29T21:19:17Z</time>
      </trkpt>
      <trkpt lat="45.9602" lon="4.58906">
        <ele>598</ele>
        <time>2025-10-29T21:19:41Z</time>
      </trkpt>
      <trkpt lat="45.96031" lon="4.58911">
        <ele>598</ele>
        <time>2025-10-29T21:19:57Z</time>
      </trkpt>
      <trkpt lat="45.9604" lon="4.58917">
        <ele>599</ele>
        <time>2025-10-29T21:20:10Z</time>
      </trkpt>
      <trkpt lat="45.96078" lon="4.58944">
        <ele>602</ele>
        <time>2025-10-29T21:21:06Z</time>
      </trkpt>
      <trkpt lat="45.96089" lon="4.5895">
        <ele>603</ele>
        <time>2025-10-29T21:21:22Z</time>
      </trkpt>
      <trkpt lat="45.96111" lon="4.58957">
        <ele>604</ele>
        <time>2025-10-29T21:21:52Z</time>
      </trkpt>
      <trkpt lat="45.96149" lon="4.58962">
        <ele>605</ele>
        <time>2025-10-29T21:22:43Z</time>
      </trkpt>
      <trkpt lat="45.96151" lon="4.58963">
        <ele>605</ele>
        <time>2025-10-29T21:22:46Z</time>
      </trkpt>
      <trkpt lat="45.96148" lon="4.58987">
        <ele>607</ele>
        <time>2025-10-29T21:23:09Z</time>
      </trkpt>
      <trkpt lat="45.96143" lon="4.59001">
        <ele>609</ele>
        <time>2025-10-29T21:23:23Z</time>
      </trkpt>
      <trkpt lat="45.96136" lon="4.59008">
        <ele>610</ele>
        <time>2025-10-29T21:23:35Z</time>
      </trkpt>
      <trkpt lat="45.96121" lon="4.59016">
        <ele>612</ele>
        <time>2025-10-29T21:23:56Z</time>
      </trkpt>
      <trkpt lat="45.96103" lon="4.59024">
        <ele>614</ele>
        <time>2025-10-29T21:24:21Z</time>
      </trkpt>
      <trkpt lat="45.96094" lon="4.59034">
        <ele>615</ele>
        <time>2025-10-29T21:24:36Z</time>
      </trkpt>
      <trkpt lat="45.96073" lon="4.59063">
        <ele>621</ele>
        <time>2025-10-29T21:25:15Z</time>
      </trkpt>
      <trkpt lat="45.96061" lon="4.59076">
        <ele>624</ele>
        <time>2025-10-29T21:25:35Z</time>
      </trkpt>
      <trkpt lat="45.96029" lon="4.59097">
        <ele>628</ele>
        <time>2025-10-29T21:26:22Z</time>
      </trkpt>
      <trkpt lat="45.96" lon="4.59123">
        <ele>631</ele>
        <time>2025-10-29T21:27:08Z</time>
      </trkpt>
      <trkpt lat="45.95948" lon="4.59156">
        <ele>630</ele>
        <time>2025-10-29T21:28:23Z</time>
      </trkpt>
      <trkpt lat="45.95954" lon="4.5916">
        <ele>630</ele>
        <time>2025-10-29T21:28:32Z</time>
      </trkpt>
      <trkpt lat="45.95948" lon="4.59156">
        <ele>630</ele>
        <time>2025-10-29T21:28:41Z</time>
      </trkpt>
      <trkpt lat="45.95932" lon="4.59164">
        <ele>629</ele>
        <time>2025-10-29T21:29:04Z</time>
      </trkpt>
      <trkpt lat="45.95921" lon="4.59174">
        <ele>630</ele>
        <time>2025-10-29T21:29:21Z</time>
      </trkpt>
      <trkpt lat="45.95899" lon="4.59201">
        <ele>631</ele>
        <time>2025-10-29T21:30:00Z</time>
      </trkpt>
      <trkpt lat="45.95887" lon="4.59212">
        <ele>631</ele>
        <time>2025-10-29T21:30:19Z</time>
      </trkpt>
      <trkpt lat="45.95863" lon="4.59224">
        <ele>631</ele>
        <time>2025-10-29T21:30:53Z</time>
      </trkpt>
      <trkpt lat="45.95808" lon="4.5924">
        <ele>632</ele>
        <time>2025-10-29T21:32:07Z</time>
      </trkpt>
      <trkpt lat="45.95769" lon="4.59258">
        <ele>634</ele>
        <time>2025-10-29T21:33:02Z</time>
      </trkpt>
      <trkpt lat="45.95741" lon="4.59277">
        <ele>635</ele>
        <time>2025-10-29T21:33:43Z</time>
      </trkpt>
      <trkpt lat="45.95691" lon="4.59301">
        <ele>637</ele>
        <time>2025-10-29T21:34:54Z</time>
      </trkpt>
      <trkpt lat="45.95665" lon="4.59314">
        <ele>639</ele>
        <time>2025-10-29T21:35:30Z</time>
      </trkpt>
      <trkpt lat="45.95653" lon="4.59322">
        <ele>641</ele>
        <time>2025-10-29T21:35:48Z</time>
      </trkpt>
      <trkpt lat="45.95558" lon="4.59365">
        <ele>645</ele>
        <time>2025-10-29T21:38:01Z</time>
      </trkpt>
      <trkpt lat="45.95528" lon="4.5939">
        <ele>647</ele>
        <time>2025-10-29T21:38:47Z</time>
      </trkpt>
      <trkpt lat="45.95487" lon="4.59424">
        <ele>648</ele>
        <time>2025-10-29T21:39:50Z</time>
      </trkpt>
      <trkpt lat="45.95463" lon="4.59446">
        <ele>647</ele>
        <time>2025-10-29T21:40:28Z</time>
      </trkpt>
      <trkpt lat="45.95443" lon="4.59469">
        <ele>647</ele>
        <time>2025-10-29T21:41:03Z</time>
      </trkpt>
      <trkpt lat="45.95438" lon="4.59472">
        <ele>647</ele>
        <time>2025-10-29T21:41:10Z</time>
      </trkpt>
      <trkpt lat="45.95414" lon="4.59496">
        <ele>647</ele>
        <time>2025-10-29T21:41:49Z</time>
      </trkpt>
      <trkpt lat="45.95408" lon="4.59498">
        <ele>646</ele>
        <time>2025-10-29T21:41:57Z</time>
      </trkpt>
      <trkpt lat="45.95398" lon="4.59508">
        <ele>645</ele>
        <time>2025-10-29T21:42:13Z</time>
      </trkpt>
      <trkpt lat="45.9539" lon="4.59521">
        <ele>645</ele>
        <time>2025-10-29T21:42:29Z</time>
      </trkpt>
      <trkpt lat="45.95378" lon="4.59544">
        <ele>645</ele>
        <time>2025-10-29T21:42:56Z</time>
      </trkpt>
      <trkpt lat="45.95367" lon="4.59563">
        <ele>645</ele>
        <time>2025-10-29T21:43:19Z</time>
      </trkpt>
      <trkpt lat="45.95349" lon="4.59602">
        <ele>646</ele>
        <time>2025-10-29T21:44:02Z</time>
      </trkpt>
      <trkpt lat="45.95337" lon="4.59633">
        <ele>647</ele>
        <time>2025-10-29T21:44:35Z</time>
      </trkpt>
      <trkpt lat="45.95304" lon="4.59692">
        <ele>643</ele>
        <time>2025-10-29T21:45:46Z</time>
      </trkpt>
      <trkpt lat="45.95289" lon="4.59743">
        <ele>642</ele>
        <time>2025-10-29T21:46:37Z</time>
      </trkpt>
      <trkpt lat="45.95277" lon="4.59779">
        <ele>641</ele>
        <time>2025-10-29T21:47:14Z</time>
      </trkpt>
      <trkpt lat="45.95254" lon="4.59867">
        <ele>636</ele>
        <time>2025-10-29T21:48:41Z</time>
      </trkpt>
      <trkpt lat="45.95208" lon="4.60002">
        <ele>618</ele>
        <time>2025-10-29T21:51:01Z</time>
      </trkpt>
      <trkpt lat="45.95197" lon="4.6003">
        <ele>613</ele>
        <time>2025-10-29T21:51:31Z</time>
      </trkpt>
      <trkpt lat="45.95176" lon="4.60064">
        <ele>607</ele>
        <time>2025-10-29T21:52:13Z</time>
      </trkpt>
      <trkpt lat="45.95168" lon="4.60083">
        <ele>605</ele>
        <time>2025-10-29T21:52:33Z</time>
      </trkpt>
      <trkpt lat="45.95149" lon="4.60115">
        <ele>598</ele>
        <time>2025-10-29T21:53:12Z</time>
      </trkpt>
      <trkpt lat="45.95139" lon="4.60129">
        <ele>595</ele>
        <time>2025-10-29T21:53:31Z</time>
      </trkpt>
      <trkpt lat="45.95125" lon="4.60151">
        <ele>590</ele>
        <time>2025-10-29T21:53:59Z</time>
      </trkpt>
      <trkpt lat="45.95118" lon="4.60167">
        <ele>588</ele>
        <time>2025-10-29T21:54:16Z</time>
      </trkpt>
      <trkpt lat="45.95105" lon="4.60191">
        <ele>583</ele>
        <time>2025-10-29T21:54:45Z</time>
      </trkpt>
      <trkpt lat="45.95082" lon="4.60229">
        <ele>576</ele>
        <time>2025-10-29T21:55:31Z</time>
      </trkpt>
      <trkpt lat="45.95059" lon="4.60241">
        <ele>574</ele>
        <time>2025-10-29T21:56:04Z</time>
      </trkpt>
      <trkpt lat="45.95033" lon="4.60261">
        <ele>573</ele>
        <time>2025-10-29T21:56:43Z</time>
      </trkpt>
      <trkpt lat="45.9503" lon="4.60264">
        <ele>573</ele>
        <time>2025-10-29T21:56:48Z</time>
      </trkpt>
      <trkpt lat="45.95018" lon="4.60221">
        <ele>570</ele>
        <time>2025-10-29T21:57:31Z</time>
      </trkpt>
      <trkpt lat="45.95009" lon="4.60163">
        <ele>564</ele>
        <time>2025-10-29T21:58:26Z</time>
      </trkpt>
      <trkpt lat="45.95003" lon="4.60146">
        <ele>561</ele>
        <time>2025-10-29T21:58:44Z</time>
      </trkpt>
      <trkpt lat="45.94996" lon="4.60132">
        <ele>558</ele>
        <time>2025-10-29T21:59:00Z</time>
      </trkpt>
      <trkpt lat="45.94999" lon="4.6011">
        <ele>557</ele>
        <time>2025-10-29T21:59:21Z</time>
      </trkpt>
      <trkpt lat="45.95005" lon="4.60078">
        <ele>556</ele>
        <time>2025-10-29T21:59:52Z</time>
      </trkpt>
      <trkpt lat="45.95008" lon="4.60042">
        <ele>556</ele>
        <time>2025-10-29T22:00:25Z</time>
      </trkpt>
      <trkpt lat="45.9501" lon="4.59927">
        <ele>554</ele>
        <time>2025-10-29T22:02:12Z</time>
      </trkpt>
      <trkpt lat="45.95011" lon="4.59883">
        <ele>554</ele>
        <time>2025-10-29T22:02:53Z</time>
      </trkpt>
      <trkpt lat="45.95009" lon="4.59802">
        <ele>554</ele>
        <time>2025-10-29T22:04:08Z</time>
      </trkpt>
      <trkpt lat="45.95004" lon="4.5978">
        <ele>553</ele>
        <time>2025-10-29T22:04:29Z</time>
      </trkpt>
      <trkpt lat="45.95001" lon="4.59767">
        <ele>553</ele>
        <time>2025-10-29T22:04:42Z</time>
      </trkpt>
      <trkpt lat="45.94999" lon="4.59756">
        <ele>553</ele>
        <time>2025-10-29T22:04:53Z</time>
      </trkpt>
      <trkpt lat="45.95" lon="4.59702">
        <ele>554</ele>
        <time>2025-10-29T22:05:43Z</time>
      </trkpt>
      <trkpt lat="45.94995" lon="4.59616">
        <ele>554</ele>
        <time>2025-10-29T22:07:03Z</time>
      </trkpt>
      <trkpt lat="45.94997" lon="4.59586">
        <ele>555</ele>
        <time>2025-10-29T22:07:31Z</time>
      </trkpt>
      <trkpt lat="45.94996" lon="4.59498">
        <ele>560</ele>
        <time>2025-10-29T22:08:52Z</time>
      </trkpt>
      <trkpt lat="45.94994" lon="4.59487">
        <ele>561</ele>
        <time>2025-10-29T22:09:03Z</time>
      </trkpt>
      <trkpt lat="45.94988" lon="4.59468">
        <ele>562</ele>
        <time>2025-10-29T22:09:22Z</time>
      </trkpt>
      <trkpt lat="45.94964" lon="4.59413">
        <ele>564</ele>
        <time>2025-10-29T22:10:23Z</time>
      </trkpt>
      <trkpt lat="45.94945" lon="4.59374">
        <ele>565</ele>
        <time>2025-10-29T22:11:07Z</time>
      </trkpt>
      <trkpt lat="45.94942" lon="4.59362">
        <ele>565</ele>
        <time>2025-10-29T22:11:19Z</time>
      </trkpt>
      <trkpt lat="45.94931" lon="4.59363">
        <ele>564</ele>
        <time>2025-10-29T22:11:33Z</time>
      </trkpt>
      <trkpt lat="45.94898" lon="4.59309">
        <ele>562</ele>
        <time>2025-10-29T22:12:40Z</time>
      </trkpt>
      <trkpt lat="45.94887" lon="4.59289">
        <ele>559</ele>
        <time>2025-10-29T22:13:04Z</time>
      </trkpt>
      <trkpt lat="45.94881" lon="4.59274">
        <ele>558</ele>
        <time>2025-10-29T22:13:20Z</time>
      </trkpt>
      <trkpt lat="45.94879" lon="4.59262">
        <ele>557</ele>
        <time>2025-10-29T22:13:31Z</time>
      </trkpt>
      <trkpt lat="45.9488" lon="4.5925">
        <ele>557</ele>
        <time>2025-10-29T22:13:42Z</time>
      </trkpt>
      <trkpt lat="45.94884" lon="4.59224">
        <ele>555</ele>
        <time>2025-10-29T22:14:07Z</time>
      </trkpt>
      <trkpt lat="45.94888" lon="4.5919">
        <ele>553</ele>
        <time>2025-10-29T22:14:39Z</time>
      </trkpt>
      <trkpt lat="45.94889" lon="4.59172">
        <ele>552</ele>
        <time>2025-10-29T22:14:56Z</time>
      </trkpt>
      <trkpt lat="45.94887" lon="4.59154">
        <ele>550</ele>
        <time>2025-10-29T22:15:13Z</time>
      </trkpt>
      <trkpt lat="45.94877" lon="4.59105">
        <ele>544</ele>
        <time>2025-10-29T22:16:00Z</time>
      </trkpt>
      <trkpt lat="45.94877" lon="4.59096">
        <ele>543</ele>
        <time>2025-10-29T22:16:09Z</time>
      </trkpt>
      <trkpt lat="45.9488" lon="4.59071">
        <ele>541</ele>
        <time>2025-10-29T22:16:32Z</time>
      </trkpt>
      <trkpt lat="45.9488" lon="4.59055">
        <ele>540</ele>
        <time>2025-10-29T22:16:47Z</time>
      </trkpt>
      <trkpt lat="45.94878" lon="4.59042">
        <ele>539</ele>
        <time>2025-10-29T22:16:59Z</time>
      </trkpt>
      <trkpt lat="45.94874" lon="4.59031">
        <ele>538</ele>
        <time>2025-10-29T22:17:11Z</time>
      </trkpt>
      <trkpt lat="45.94861" lon="4.59006">
        <ele>535</ele>
        <time>2025-10-29T22:17:40Z</time>
      </trkpt>
      <trkpt lat="45.94843" lon="4.58974">
        <ele>533</ele>
        <time>2025-10-29T22:18:18Z</time>
      </trkpt>
      <trkpt lat="45.94839" lon="4.58963">
        <ele>533</ele>
        <time>2025-10-29T22:18:29Z</time>
      </trkpt>
      <trkpt lat="45.94838" lon="4.58951">
        <ele>532</ele>
        <time>2025-10-29T22:18:41Z</time>
      </trkpt>
      <trkpt lat="45.94839" lon="4.58931">
        <ele>532</ele>
        <time>2025-10-29T22:18:59Z</time>
      </trkpt>
      <trkpt lat="45.94839" lon="4.58924">
        <ele>532</ele>
        <time>2025-10-29T22:19:06Z</time>
      </trkpt>
      <trkpt lat="45.94836" lon="4.58918">
        <ele>531</ele>
        <time>2025-10-29T22:19:13Z</time>
      </trkpt>
      <trkpt lat="45.94834" lon="4.58915">
        <ele>531</ele>
        <time>2025-10-29T22:19:17Z</time>
      </trkpt>
      <trkpt lat="45.94851" lon="4.58863">
        <ele>526</ele>
        <time>2025-10-29T22:20:10Z</time>
      </trkpt>
      <trkpt lat="45.94863" lon="4.58835">
        <ele>524</ele>
        <time>2025-10-29T22:20:40Z</time>
      </trkpt>
      <trkpt lat="45.94897" lon="4.58776">
        <ele>521</ele>
        <time>2025-10-29T22:21:51Z</time>
      </trkpt>
      <trkpt lat="45.94925" lon="4.58739">
        <ele>522</ele>
        <time>2025-10-29T22:22:42Z</time>
      </trkpt>
      <trkpt lat="45.9494" lon="4.58715">
        <ele>522</ele>
        <time>2025-10-29T22:23:12Z</time>
      </trkpt>
      <trkpt lat="45.9495" lon="4.58691">
        <ele>522</ele>
        <time>2025-10-29T22:23:38Z</time>
      </trkpt>
      <trkpt lat="45.94953" lon="4.58667">
        <ele>521</ele>
        <time>2025-10-29T22:24:01Z</time>
      </trkpt>
      <trkpt lat="45.94953" lon="4.58649">
        <ele>522</ele>
        <time>2025-10-29T22:24:17Z</time>
      </trkpt>
      <trkpt lat="45.94952" lon="4.5863">
        <ele>522</ele>
        <time>2025-10-29T22:24:35Z</time>
      </trkpt>
      <trkpt lat="45.9495" lon="4.58608">
        <ele>522</ele>
        <time>2025-10-29T22:24:56Z</time>
      </trkpt>
      <trkpt lat="45.94946" lon="4.58587">
        <ele>522</ele>
        <time>2025-10-29T22:25:16Z</time>
      </trkpt>
      <trkpt lat="45.94942" lon="4.5857">
        <ele>523</ele>
        <time>2025-10-29T22:25:33Z</time>
      </trkpt>
      <trkpt lat="45.9493" lon="4.58535">
        <ele>524</ele>
        <time>2025-10-29T22:26:09Z</time>
      </trkpt>
      <trkpt lat="45.9491" lon="4.58478">
        <ele>525</ele>
        <time>2025-10-29T22:27:08Z</time>
      </trkpt>
      <trkpt lat="45.94905" lon="4.58458">
        <ele>525</ele>
        <time>2025-10-29T22:27:28Z</time>
      </trkpt>
      <trkpt lat="45.94903" lon="4.5845">
        <ele>525</ele>
        <time>2025-10-29T22:27:36Z</time>
      </trkpt>
      <trkpt lat="45.94902" lon="4.58438">
        <ele>525</ele>
        <time>2025-10-29T22:27:47Z</time>
      </trkpt>
      <trkpt lat="45.94899" lon="4.58401">
        <ele>526</ele>
        <time>2025-10-29T22:28:21Z</time>
      </trkpt>
      <trkpt lat="45.949" lon="4.58388">
        <ele>527</ele>
        <time>2025-10-29T22:28:34Z</time>
      </trkpt>
      <trkpt lat="45.94899" lon="4.58368">
        <ele>527</ele>
        <time>2025-10-29T22:28:52Z</time>
      </trkpt>
      <trkpt lat="45.94862" lon="4.58366">
        <ele>527</ele>
        <time>2025-10-29T22:29:42Z</time>
      </trkpt>
      <trkpt lat="45.9485" lon="4.58365">
        <ele>527</ele>
        <time>2025-10-29T22:29:58Z</time>
      </trkpt>
      <trkpt lat="45.94835" lon="4.5836">
        <ele>527</ele>
        <time>2025-10-29T22:30:18Z</time>
      </trkpt>
      <trkpt lat="45.94822" lon="4.58356">
        <ele>527</ele>
        <time>2025-10-29T22:30:36Z</time>
      </trkpt>
      <trkpt lat="45.94788" lon="4.5834">
        <ele>526</ele>
        <time>2025-10-29T22:31:24Z</time>
      </trkpt>
      <trkpt lat="45.94765" lon="4.58326">
        <ele>527</ele>
        <time>2025-10-29T22:31:57Z</time>
      </trkpt>
      <trkpt lat="45.94738" lon="4.58311">
        <ele>527</ele>
        <time>2025-10-29T22:32:36Z</time>
      </trkpt>
      <trkpt lat="45.94724" lon="4.58304">
        <ele>527</ele>
        <time>2025-10-29T22:32:55Z</time>
      </trkpt>
      <trkpt lat="45.94697" lon="4.58294">
        <ele>527</ele>
        <time>2025-10-29T22:33:33Z</time>
      </trkpt>
      <trkpt lat="45.9468" lon="4.58287">
        <ele>526</ele>
        <time>2025-10-29T22:33:56Z</time>
      </trkpt>
      <trkpt lat="45.94673" lon="4.58279">
        <ele>526</ele>
        <time>2025-10-29T22:34:08Z</time>
      </trkpt>
      <trkpt lat="45.94662" lon="4.58277">
        <ele>525</ele>
        <time>2025-10-29T22:34:23Z</time>
      </trkpt>
      <trkpt lat="45.94635" lon="4.5828">
        <ele>524</ele>
        <time>2025-10-29T22:34:59Z</time>
      </trkpt>
      <trkpt lat="45.94587" lon="4.58298">
        <ele>521</ele>
        <time>2025-10-29T22:36:05Z</time>
      </trkpt>
      <trkpt lat="45.94545" lon="4.58316">
        <ele>521</ele>
        <time>2025-10-29T22:37:04Z</time>
      </trkpt>
      <trkpt lat="45.94489" lon="4.58343">
        <ele>519</ele>
        <time>2025-10-29T22:38:22Z</time>
      </trkpt>
      <trkpt lat="45.94485" lon="4.58345">
        <ele>519</ele>
        <time>2025-10-29T22:38:28Z</time>
      </trkpt>
    </trkseg>
  </trk>
</gpx>